createdAt,value
2017-12-23T00:01:37.776Z,46.84
2017-12-23T00:04:05.541Z,46.88
2017-12-23T00:06:33.004Z,46.87
2017-12-23T00:09:00.447Z,46.84
2017-12-23T00:11:27.919Z,46.90
2017-12-23T00:13:55.379Z,46.90
2017-12-23T00:16:22.859Z,46.95
2017-12-23T00:18:50.291Z,46.88
2017-12-23T00:21:17.771Z,46.92
2017-12-23T00:23:45.427Z,46.91
2017-12-23T00:26:13.110Z,46.92
2017-12-23T00:28:40.742Z,46.93
2017-12-23T00:31:08.195Z,46.90
2017-12-23T00:33:35.674Z,46.91
2017-12-23T00:36:03.136Z,46.97
2017-12-23T00:38:30.618Z,46.95
2017-12-23T00:40:58.071Z,46.93
2017-12-23T00:43:26.327Z,46.89
2017-12-23T00:45:53.771Z,46.89
2017-12-23T00:48:21.251Z,46.93
2017-12-23T00:50:48.938Z,46.95
2017-12-23T00:53:16.402Z,46.96
2017-12-23T00:55:44.051Z,46.94
2017-12-23T00:58:11.499Z,46.96
2017-12-23T01:00:38.967Z,46.99
2017-12-23T01:03:06.616Z,46.87
2017-12-23T01:05:34.271Z,46.90
2017-12-23T01:08:01.710Z,46.94
2017-12-23T01:10:29.176Z,46.96
2017-12-23T01:12:56.631Z,46.93
2017-12-23T01:15:24.092Z,46.93
2017-12-23T01:17:51.548Z,46.97
2017-12-23T01:20:19.005Z,46.93
2017-12-23T01:22:46.462Z,46.97
2017-12-23T01:25:14.148Z,46.99
2017-12-23T01:27:41.595Z,47.07
2017-12-23T01:30:09.096Z,46.96
2017-12-23T01:32:36.543Z,47.03
2017-12-23T01:35:03.987Z,46.94
2017-12-23T01:37:31.447Z,46.98
2017-12-23T01:39:58.903Z,47.02
2017-12-23T01:42:26.364Z,46.97
2017-12-23T01:44:53.807Z,46.97
2017-12-23T01:47:21.264Z,46.88
2017-12-23T01:49:48.754Z,47.01
2017-12-23T01:52:16.407Z,47.02
2017-12-23T01:54:43.859Z,47.07
2017-12-23T01:57:11.307Z,47.03
2017-12-23T01:59:38.769Z,47.02
2017-12-23T02:02:06.419Z,47.06
2017-12-23T02:04:33.872Z,47.01
2017-12-23T02:07:01.331Z,47.04
2017-12-23T02:09:28.791Z,47.02
2017-12-23T02:11:56.235Z,47.11
2017-12-23T02:14:23.694Z,47.09
2017-12-23T02:16:51.147Z,47.07
2017-12-23T02:19:18.591Z,47.07
2017-12-23T02:21:46.043Z,47.09
2017-12-23T02:24:13.503Z,47.03
2017-12-23T02:26:40.948Z,47.08
2017-12-23T02:29:08.605Z,47.05
2017-12-23T02:31:36.072Z,47.07
2017-12-23T02:34:03.521Z,46.96
2017-12-23T02:36:31.194Z,47.10
2017-12-23T02:38:58.835Z,47.05
2017-12-23T02:41:26.288Z,47.11
2017-12-23T02:43:53.743Z,47.07
2017-12-23T02:46:21.192Z,47.10
2017-12-23T02:48:48.864Z,47.06
2017-12-23T02:51:16.308Z,47.17
2017-12-23T02:53:43.983Z,47.06
2017-12-23T02:56:11.440Z,47.09
2017-12-23T02:58:38.900Z,47.11
2017-12-23T03:01:06.351Z,47.10
2017-12-23T03:03:34.059Z,47.12
2017-12-23T03:06:01.512Z,47.10
2017-12-23T03:08:29.163Z,47.10
2017-12-23T03:10:56.616Z,47.07
2017-12-23T03:13:24.274Z,47.16
2017-12-23T03:15:51.715Z,47.10
2017-12-23T03:18:19.171Z,47.10
2017-12-23T03:20:46.631Z,47.08
2017-12-23T03:23:14.088Z,47.17
2017-12-23T03:25:41.530Z,47.12
2017-12-23T03:28:08.992Z,47.14
2017-12-23T03:30:36.440Z,47.22
2017-12-23T03:33:04.090Z,47.13
2017-12-23T03:35:31.546Z,47.17
2017-12-23T03:37:59.180Z,47.12
2017-12-23T03:40:26.646Z,47.16
2017-12-23T03:42:54.292Z,47.17
2017-12-23T03:45:21.743Z,47.16
2017-12-23T03:47:49.190Z,47.18
2017-12-23T03:50:16.647Z,47.15
2017-12-23T03:52:44.094Z,47.18
2017-12-23T03:55:11.546Z,47.19
2017-12-23T03:57:38.994Z,47.19
2017-12-23T04:00:06.452Z,47.20
2017-12-23T04:02:33.906Z,47.22
2017-12-23T04:05:01.351Z,47.21
2017-12-23T04:07:29.007Z,47.18
2017-12-23T04:09:57.515Z,47.17
2017-12-23T04:12:24.970Z,47.19
2017-12-23T04:14:52.438Z,47.20
2017-12-23T04:17:19.901Z,47.17
2017-12-23T04:19:47.346Z,47.21
2017-12-23T04:22:14.798Z,47.14
2017-12-23T04:24:42.246Z,47.40
2017-12-23T04:27:09.702Z,47.18
2017-12-23T04:29:37.214Z,47.18
2017-12-23T04:32:04.811Z,47.10
2017-12-23T04:34:32.263Z,47.30
2017-12-23T04:36:59.730Z,47.39
2017-12-23T04:39:27.187Z,47.15
2017-12-23T04:41:54.660Z,47.34
2017-12-23T04:44:22.302Z,47.18
2017-12-23T04:46:49.755Z,47.31
2017-12-23T04:49:17.210Z,47.24
2017-12-23T04:51:44.654Z,47.29
2017-12-23T04:54:12.107Z,47.31
2017-12-23T04:56:39.559Z,47.15
2017-12-23T04:59:07.007Z,47.15
2017-12-23T05:01:34.464Z,47.23
2017-12-23T05:04:01.919Z,47.18
2017-12-23T05:06:29.375Z,47.14
2017-12-23T05:08:56.826Z,46.80
2017-12-23T05:11:24.279Z,47.18
2017-12-23T05:13:51.727Z,46.98
2017-12-23T05:16:19.179Z,46.90
2017-12-23T05:18:46.635Z,46.89
2017-12-23T05:21:14.283Z,46.78
2017-12-23T05:23:41.731Z,46.79
2017-12-23T05:26:09.183Z,46.83
2017-12-23T05:28:36.640Z,46.79
2017-12-23T05:31:04.091Z,46.79
2017-12-23T05:33:31.547Z,46.78
2017-12-23T05:35:58.999Z,46.81
2017-12-23T05:38:26.456Z,46.82
2017-12-23T05:40:54.112Z,46.82
2017-12-23T05:43:21.558Z,46.82
2017-12-23T05:45:49.024Z,46.75
2017-12-23T05:48:16.470Z,46.73
2017-12-23T05:50:43.926Z,46.74
2017-12-23T05:53:11.387Z,46.65
2017-12-23T05:55:38.847Z,46.69
2017-12-23T05:58:06.499Z,46.72
2017-12-23T06:00:33.958Z,46.65
2017-12-23T06:03:01.419Z,46.68
2017-12-23T06:05:28.867Z,46.71
2017-12-23T06:07:56.316Z,46.67
2017-12-23T06:10:23.766Z,46.67
2017-12-23T06:12:51.230Z,46.69
2017-12-23T06:15:18.691Z,46.73
2017-12-23T06:17:46.152Z,46.71
2017-12-23T06:20:13.628Z,46.71
2017-12-23T06:22:41.525Z,46.64
2017-12-23T06:25:08.948Z,46.66
2017-12-23T06:27:36.403Z,46.71
2017-12-23T06:30:03.861Z,46.67
2017-12-23T06:32:31.337Z,46.61
2017-12-23T06:34:58.782Z,46.66
2017-12-23T06:37:26.443Z,46.65
2017-12-23T06:39:53.898Z,46.65
2017-12-23T06:42:21.343Z,46.65
2017-12-23T06:44:48.786Z,46.63
2017-12-23T06:47:16.295Z,46.64
2017-12-23T06:49:43.751Z,46.65
2017-12-23T06:52:11.209Z,46.68
2017-12-23T06:54:38.660Z,46.61
2017-12-23T06:57:06.111Z,46.64
2017-12-23T06:59:33.611Z,46.64
2017-12-23T07:02:01.065Z,46.62
2017-12-23T07:04:28.723Z,46.65
2017-12-23T07:06:56.175Z,46.60
2017-12-23T07:09:23.631Z,46.58
2017-12-23T07:11:51.083Z,46.62
2017-12-23T07:14:18.582Z,46.64
2017-12-23T07:16:46.023Z,46.62
2017-12-23T07:19:13.479Z,46.60
2017-12-23T07:21:40.929Z,46.59
2017-12-23T07:24:08.386Z,46.61
2017-12-23T07:26:35.831Z,46.62
2017-12-23T07:29:03.279Z,46.59
2017-12-23T07:31:30.730Z,46.57
2017-12-23T07:33:58.179Z,46.53
2017-12-23T07:36:25.631Z,46.50
2017-12-23T07:38:53.115Z,46.49
2017-12-23T07:41:20.563Z,46.54
2017-12-23T07:43:48.507Z,46.56
2017-12-23T07:46:15.972Z,46.45
2017-12-23T07:48:43.424Z,46.50
2017-12-23T07:51:10.883Z,46.45
2017-12-23T07:53:38.344Z,46.46
2017-12-23T07:56:05.799Z,46.47
2017-12-23T07:58:33.261Z,46.45
2017-12-23T08:01:00.915Z,46.51
2017-12-23T08:03:28.387Z,46.43
2017-12-23T08:05:55.835Z,46.41
2017-12-23T08:08:23.292Z,46.41
2017-12-23T08:10:50.731Z,46.38
2017-12-23T08:13:18.191Z,46.31
2017-12-23T08:15:45.636Z,46.39
2017-12-23T08:18:13.083Z,46.32
2017-12-23T08:20:40.732Z,46.32
2017-12-23T08:23:08.186Z,46.35
2017-12-23T08:25:35.635Z,46.29
2017-12-23T08:28:03.095Z,46.29
2017-12-23T08:30:30.583Z,46.32
2017-12-23T08:32:58.043Z,46.28
2017-12-23T08:35:25.501Z,46.25
2017-12-23T08:37:53.166Z,46.24
2017-12-23T08:40:20.819Z,46.28
2017-12-23T08:42:48.271Z,46.25
2017-12-23T08:45:15.717Z,46.23
2017-12-23T08:47:43.175Z,46.28
2017-12-23T08:50:10.835Z,46.24
2017-12-23T08:52:38.292Z,46.22
2017-12-23T08:55:05.742Z,46.18
2017-12-23T08:57:33.190Z,46.19
2017-12-23T09:00:00.655Z,46.20
2017-12-23T09:02:28.312Z,46.15
2017-12-23T09:04:55.810Z,46.18
2017-12-23T09:07:23.459Z,46.18
2017-12-23T09:09:51.135Z,46.19
2017-12-23T09:12:18.587Z,46.16
2017-12-23T09:14:46.075Z,46.17
2017-12-23T09:17:13.527Z,46.13
2017-12-23T09:19:40.979Z,46.11
2017-12-23T09:22:08.440Z,46.13
2017-12-23T09:24:35.893Z,46.13
2017-12-23T09:27:03.548Z,46.13
2017-12-23T09:29:31.031Z,46.17
2017-12-23T09:31:58.479Z,46.12
2017-12-23T09:34:25.932Z,46.10
2017-12-23T09:36:53.595Z,46.10
2017-12-23T09:39:21.058Z,46.13
2017-12-23T09:41:48.511Z,46.12
2017-12-23T09:44:16.179Z,46.12
2017-12-23T09:46:43.635Z,46.14
2017-12-23T09:49:11.356Z,46.09
2017-12-23T09:51:38.956Z,46.18
2017-12-23T09:54:06.415Z,46.12
2017-12-23T09:56:33.882Z,46.06
2017-12-23T09:59:01.337Z,46.08
2017-12-23T10:01:28.803Z,46.11
2017-12-23T10:03:56.267Z,46.05
2017-12-23T10:06:23.912Z,46.06
2017-12-23T10:08:51.367Z,46.05
2017-12-23T10:11:18.819Z,46.07
2017-12-23T10:13:46.279Z,46.07
2017-12-23T10:16:13.739Z,46.08
2017-12-23T10:18:41.302Z,46.02
2017-12-23T10:21:08.715Z,46.08
2017-12-23T10:23:36.161Z,46.03
2017-12-23T10:26:03.835Z,46.02
2017-12-23T10:28:31.484Z,46.09
2017-12-23T10:30:58.937Z,46.30
2017-12-23T10:33:26.591Z,46.22
2017-12-23T10:35:54.050Z,46.03
2017-12-23T10:38:21.489Z,45.90
2017-12-23T10:40:48.947Z,45.96
2017-12-23T10:43:16.412Z,45.95
2017-12-23T10:45:44.067Z,45.91
2017-12-23T10:48:11.727Z,45.93
2017-12-23T10:50:39.197Z,45.88
2017-12-23T10:53:06.833Z,45.86
2017-12-23T10:55:34.284Z,45.82
2017-12-23T10:58:01.747Z,45.79
2017-12-23T11:00:29.206Z,45.79
2017-12-23T11:02:56.657Z,45.85
2017-12-23T11:05:24.136Z,45.77
2017-12-23T11:07:51.603Z,45.82
2017-12-23T11:10:19.055Z,45.88
2017-12-23T11:12:46.507Z,45.88
2017-12-23T11:15:13.967Z,45.96
2017-12-23T11:17:41.422Z,45.93
2017-12-23T11:20:08.875Z,45.95
2017-12-23T11:22:36.335Z,45.97
2017-12-23T11:25:03.800Z,45.93
2017-12-23T11:27:31.493Z,45.98
2017-12-23T11:29:59.151Z,45.97
2017-12-23T11:32:26.603Z,45.97
2017-12-23T11:34:54.047Z,46.03
2017-12-23T11:37:21.496Z,46.00
2017-12-23T11:39:48.946Z,46.03
2017-12-23T11:42:16.433Z,46.02
2017-12-23T11:44:44.114Z,45.96
2017-12-23T11:47:11.566Z,46.03
2017-12-23T11:49:39.019Z,46.07
2017-12-23T11:52:06.466Z,46.04
2017-12-23T11:54:33.927Z,46.04
2017-12-23T11:57:01.387Z,46.03
2017-12-23T11:59:28.839Z,46.06
2017-12-23T12:01:56.115Z,46.04
2017-12-23T12:04:23.760Z,46.04
2017-12-23T12:06:51.211Z,46.02
2017-12-23T12:09:18.667Z,46.00
2017-12-23T12:11:46.124Z,46.00
2017-12-23T12:14:13.584Z,45.99
2017-12-23T12:16:41.046Z,45.98
2017-12-23T12:19:08.698Z,45.94
2017-12-23T12:21:36.162Z,45.99
2017-12-23T12:24:03.803Z,45.91
2017-12-23T12:26:31.259Z,45.94
2017-12-23T12:28:58.721Z,45.93
2017-12-23T12:31:26.166Z,45.96
2017-12-23T12:33:53.659Z,45.93
2017-12-23T12:36:21.335Z,45.94
2017-12-23T12:38:48.795Z,45.92
2017-12-23T12:41:16.426Z,45.91
2017-12-23T12:43:43.887Z,45.95
2017-12-23T12:46:11.351Z,45.96
2017-12-23T12:48:38.803Z,45.92
2017-12-23T12:51:06.258Z,45.87
2017-12-23T12:53:33.707Z,45.92
2017-12-23T12:56:01.387Z,45.88
2017-12-23T12:58:28.835Z,45.90
2017-12-23T13:00:56.350Z,45.85
2017-12-23T13:03:23.959Z,45.74
2017-12-23T13:05:51.415Z,45.71
2017-12-23T13:08:18.879Z,45.79
2017-12-23T13:10:46.362Z,45.83
2017-12-23T13:13:14.007Z,45.83
2017-12-23T13:15:41.463Z,45.84
2017-12-23T13:18:08.933Z,45.84
2017-12-23T13:20:36.376Z,45.80
2017-12-23T13:23:03.828Z,45.85
2017-12-23T13:25:31.281Z,45.82
2017-12-23T13:27:58.935Z,45.83
2017-12-23T13:30:26.583Z,45.78
2017-12-23T13:32:54.047Z,45.80
2017-12-23T13:35:21.505Z,45.82
2017-12-23T13:37:49.174Z,45.82
2017-12-23T13:40:16.631Z,45.85
2017-12-23T13:42:44.088Z,45.85
2017-12-23T13:45:11.551Z,45.86
2017-12-23T13:47:39.003Z,45.83
2017-12-23T13:50:06.459Z,45.82
2017-12-23T13:52:33.938Z,45.86
2017-12-23T13:55:01.403Z,45.86
2017-12-23T13:57:28.868Z,45.85
2017-12-23T13:59:56.352Z,45.90
2017-12-23T14:02:23.627Z,45.84
2017-12-23T14:04:51.287Z,45.87
2017-12-23T14:07:18.736Z,45.92
2017-12-23T14:09:46.207Z,45.91
2017-12-23T14:12:13.667Z,45.88
2017-12-23T14:14:41.123Z,45.88
2017-12-23T14:17:08.612Z,45.89
2017-12-23T14:19:36.075Z,45.77
2017-12-23T14:22:03.727Z,45.92
2017-12-23T14:24:31.182Z,45.93
2017-12-23T14:26:58.646Z,45.96
2017-12-23T14:29:26.111Z,45.98
2017-12-23T14:31:53.759Z,45.99
2017-12-23T14:34:21.218Z,45.97
2017-12-23T14:36:48.670Z,45.94
2017-12-23T14:39:16.127Z,46.00
2017-12-23T14:41:43.603Z,45.99
2017-12-23T14:44:11.096Z,45.95
2017-12-23T14:46:38.604Z,45.94
2017-12-23T14:49:06.060Z,45.93
2017-12-23T14:51:33.574Z,45.95
2017-12-23T14:54:01.101Z,45.93
2017-12-23T14:56:28.571Z,45.93
2017-12-23T14:58:56.087Z,45.86
2017-12-23T15:01:23.681Z,45.93
2017-12-23T15:03:51.156Z,45.88
2017-12-23T15:06:18.631Z,45.87
2017-12-23T15:08:46.110Z,45.88
2017-12-23T15:11:13.555Z,45.88
2017-12-23T15:13:41.005Z,45.83
2017-12-23T15:16:08.445Z,45.83
2017-12-23T15:18:35.941Z,45.80
2017-12-23T15:21:03.447Z,45.82
2017-12-23T15:23:30.918Z,45.80
2017-12-23T15:25:58.375Z,45.84
2017-12-23T15:28:25.862Z,45.70
2017-12-23T15:30:53.313Z,45.79
2017-12-23T15:33:20.773Z,46.27
2017-12-23T15:35:48.241Z,46.34
2017-12-23T15:38:15.754Z,46.30
2017-12-23T15:40:43.224Z,46.16
2017-12-23T15:43:10.663Z,46.44
2017-12-23T15:45:38.119Z,45.90
2017-12-23T15:48:05.581Z,45.61
2017-12-23T15:50:33.232Z,45.72
2017-12-23T15:53:00.951Z,45.66
2017-12-23T15:55:28.395Z,45.64
2017-12-23T15:57:55.876Z,45.72
2017-12-23T16:00:23.328Z,45.66
2017-12-23T16:02:50.779Z,45.64
2017-12-23T16:05:18.223Z,45.64
2017-12-23T16:07:45.722Z,45.62
2017-12-23T16:10:13.332Z,45.62
2017-12-23T16:12:40.799Z,45.63
2017-12-23T16:15:08.300Z,45.63
2017-12-23T16:17:35.759Z,45.79
2017-12-23T16:20:03.222Z,45.81
2017-12-23T16:22:30.880Z,45.89
2017-12-23T16:24:58.335Z,46.03
2017-12-23T16:27:25.791Z,46.18
2017-12-23T16:29:53.251Z,46.03
2017-12-23T16:32:20.903Z,45.96
2017-12-23T16:34:48.515Z,45.98
2017-12-23T16:37:15.982Z,46.51
2017-12-23T16:39:43.510Z,46.92
2017-12-23T16:42:11.138Z,46.79
2017-12-23T16:44:38.843Z,46.74
2017-12-23T16:47:06.248Z,46.83
2017-12-23T16:49:33.703Z,46.78
2017-12-23T16:52:01.172Z,46.75
2017-12-23T16:54:28.623Z,46.92
2017-12-23T16:56:56.095Z,46.82
2017-12-23T16:59:23.615Z,46.76
2017-12-23T17:01:51.060Z,46.85
2017-12-23T17:04:18.508Z,46.62
2017-12-23T17:06:46.192Z,46.83
2017-12-23T17:09:13.679Z,46.83
2017-12-23T17:11:40.948Z,46.72
2017-12-23T17:14:08.394Z,46.83
2017-12-23T17:16:36.039Z,46.86
2017-12-23T17:19:03.595Z,46.45
2017-12-23T17:21:31.048Z,46.83
2017-12-23T17:23:58.497Z,46.95
2017-12-23T17:26:26.146Z,46.79
2017-12-23T17:28:53.616Z,46.78
2017-12-23T17:31:21.093Z,46.24
2017-12-23T17:33:48.568Z,46.20
2017-12-23T17:36:16.015Z,46.05
2017-12-23T17:38:43.592Z,46.08
2017-12-23T17:41:11.056Z,46.26
2017-12-23T17:43:38.768Z,46.05
2017-12-23T17:46:06.323Z,46.17
2017-12-23T17:48:33.632Z,46.15
2017-12-23T17:51:01.088Z,46.04
2017-12-23T17:53:28.722Z,46.10
2017-12-23T17:55:56.195Z,45.98
2017-12-23T17:58:23.638Z,45.95
2017-12-23T18:00:51.119Z,46.11
2017-12-23T18:03:18.567Z,46.09
2017-12-23T18:05:46.035Z,46.14
2017-12-23T18:08:13.515Z,46.13
2017-12-23T18:10:40.961Z,46.11
2017-12-23T18:13:08.644Z,46.21
2017-12-23T18:15:36.304Z,45.97
2017-12-23T18:18:03.766Z,45.96
2017-12-23T18:20:31.219Z,45.88
2017-12-23T18:22:58.666Z,45.93
2017-12-23T18:25:26.403Z,45.95
2017-12-23T18:27:53.889Z,45.89
2017-12-23T18:30:21.347Z,45.93
2017-12-23T18:32:48.827Z,45.93
2017-12-23T18:35:16.282Z,45.87
2017-12-23T18:37:43.942Z,45.85
2017-12-23T18:40:11.391Z,45.84
2017-12-23T18:42:38.868Z,45.96
2017-12-23T18:45:06.335Z,45.88
2017-12-23T18:47:33.783Z,45.81
2017-12-23T18:50:01.260Z,45.89
2017-12-23T18:52:28.719Z,45.94
2017-12-23T18:54:56.466Z,45.96
2017-12-23T18:57:24.059Z,46.01
2017-12-23T18:59:51.536Z,45.97
2017-12-23T19:02:18.987Z,45.98
2017-12-23T19:04:46.446Z,46.02
2017-12-23T19:07:13.940Z,45.98
2017-12-23T19:09:41.403Z,45.98
2017-12-23T19:12:08.899Z,45.98
2017-12-23T19:14:36.351Z,45.97
2017-12-23T19:17:03.831Z,45.96
2017-12-23T19:19:31.279Z,45.99
2017-12-23T19:21:59.030Z,45.98
2017-12-23T19:24:26.470Z,46.00
2017-12-23T19:26:53.920Z,46.08
2017-12-23T19:29:21.376Z,45.97
2017-12-23T19:31:49.023Z,45.99
2017-12-23T19:34:16.479Z,46.09
2017-12-23T19:36:43.943Z,46.09
2017-12-23T19:39:11.387Z,46.10
2017-12-23T19:41:39.032Z,46.17
2017-12-23T19:44:06.708Z,46.17
2017-12-23T19:46:34.158Z,46.19
2017-12-23T19:49:02.012Z,46.28
2017-12-23T19:51:29.459Z,46.27
2017-12-23T19:53:56.930Z,46.29
2017-12-23T19:56:24.411Z,46.33
2017-12-23T19:58:52.094Z,46.35
2017-12-23T20:01:19.739Z,46.38
2017-12-23T20:03:47.191Z,46.43
2017-12-23T20:06:14.648Z,46.46
2017-12-23T20:08:42.099Z,46.52
2017-12-23T20:11:09.791Z,46.38
2017-12-23T20:13:37.249Z,46.48
2017-12-23T20:16:04.698Z,46.41
2017-12-23T20:18:32.144Z,46.52
2017-12-23T20:20:59.590Z,46.46
2017-12-23T20:23:27.047Z,46.47
2017-12-23T20:25:54.502Z,46.49
2017-12-23T20:28:21.954Z,46.47
2017-12-23T20:30:49.407Z,46.47
2017-12-23T20:33:16.862Z,46.49
2017-12-23T20:35:44.347Z,46.49
2017-12-23T20:38:11.808Z,46.42
2017-12-23T20:40:39.455Z,46.43
2017-12-23T20:43:06.916Z,46.37
2017-12-23T20:45:34.561Z,46.65
2017-12-23T20:48:02.216Z,46.72
2017-12-23T20:50:29.695Z,46.59
2017-12-23T20:52:57.147Z,46.73
2017-12-23T20:55:24.607Z,46.88
2017-12-23T20:57:52.074Z,46.77
2017-12-23T21:00:19.527Z,46.94
2017-12-23T21:02:46.999Z,46.88
2017-12-23T21:05:14.463Z,46.88
2017-12-23T21:07:41.920Z,46.84
2017-12-23T21:10:09.393Z,46.91
2017-12-23T21:12:37.083Z,46.94
2017-12-23T21:15:04.535Z,46.93
2017-12-23T21:17:32.003Z,46.90
2017-12-23T21:19:59.467Z,46.91
2017-12-23T21:22:26.940Z,46.84
2017-12-23T21:24:54.517Z,46.86
2017-12-23T21:27:21.918Z,46.89
2017-12-23T21:29:49.359Z,46.88
2017-12-23T21:32:16.802Z,46.91
2017-12-23T21:34:44.264Z,46.88
2017-12-23T21:37:11.698Z,46.84
2017-12-23T21:39:39.191Z,46.84
2017-12-23T21:42:06.639Z,46.88
2017-12-23T21:44:34.090Z,46.84
2017-12-23T21:47:01.551Z,46.88
2017-12-23T21:49:29.000Z,47.00
2017-12-23T21:51:56.455Z,46.93
2017-12-23T21:54:23.917Z,46.91
2017-12-23T21:56:51.404Z,46.89
2017-12-23T21:59:18.883Z,46.95
2017-12-23T22:01:46.367Z,46.87
2017-12-23T22:04:13.827Z,47.02
2017-12-23T22:06:41.283Z,47.05
2017-12-23T22:09:08.735Z,47.05
2017-12-23T22:11:36.182Z,47.06
2017-12-23T22:14:03.837Z,47.06
2017-12-23T22:16:31.319Z,47.06
2017-12-23T22:18:58.839Z,47.01
2017-12-23T22:21:26.292Z,46.99
2017-12-23T22:23:53.809Z,46.98
2017-12-23T22:26:21.259Z,47.07
2017-12-23T22:28:48.707Z,47.10
2017-12-23T22:31:16.163Z,47.13
2017-12-23T22:33:43.612Z,47.18
2017-12-23T22:36:11.239Z,47.10
2017-12-23T22:38:38.771Z,47.22
2017-12-23T22:41:06.223Z,47.18
2017-12-23T22:43:33.749Z,47.08
2017-12-23T22:46:01.352Z,47.13
2017-12-23T22:48:29.003Z,47.07
2017-12-23T22:50:56.459Z,47.09
2017-12-23T22:53:23.913Z,47.06
2017-12-23T22:55:51.567Z,47.10
2017-12-23T22:58:19.011Z,47.05
2017-12-23T23:00:49.361Z,47.06
2017-12-23T23:03:17.023Z,47.05
2017-12-23T23:05:44.479Z,47.08
2017-12-23T23:08:11.933Z,47.09
2017-12-23T23:10:39.375Z,47.04
2017-12-23T23:13:06.827Z,47.06
2017-12-23T23:15:34.270Z,47.05
2017-12-23T23:18:01.732Z,47.06
2017-12-23T23:20:29.188Z,47.07
2017-12-23T23:22:56.839Z,47.06
2017-12-23T23:25:24.295Z,47.04
2017-12-23T23:27:51.813Z,47.10
2017-12-23T23:30:19.439Z,47.04
2017-12-23T23:32:46.895Z,47.01
2017-12-23T23:35:14.353Z,47.08
2017-12-23T23:37:42.004Z,47.00
2017-12-23T23:40:09.470Z,47.03
2017-12-23T23:42:36.927Z,47.00
2017-12-23T23:45:04.384Z,47.05
2017-12-23T23:47:32.032Z,46.99
2017-12-23T23:49:59.738Z,47.02
2017-12-23T23:52:27.343Z,47.05
2017-12-23T23:54:54.802Z,47.05
2017-12-23T23:57:22.264Z,47.06
2017-12-23T23:59:49.714Z,47.05
